JP-0083 weather

Tonosho Highashi (Meguriike) Helipad
Meguriike, Kagawa Prefecture, Japan

Public forecast

Using degrees Celsius for public forecast. Weather courtesy of forecast.io.

Closest aviation weather report (METAR) to Tonosho Highashi (Meguriike) Helipad

Closest report is Takamatsu Airport, 17.7 nm (32.8 km) SSW. Retrieved 2019/11/16 00:00 UTC (27 minutes ago):

RJOT 160000Z 24008KT 9999 FEW020 14/04 Q1020

Closest aviation forecast (TAF) to Tonosho Highashi (Meguriike) Helipad

Closest forecast is Takamatsu Airport, 17.7 nm (32.8 km) SSW. Retrieved 2019-11-16 00:30 UTC (0 seconds ago):

TAF TAF RJOT 152308Z 1600/1706 15008KT 9999 FEW030 BECMG 1600/1602 26011KT BECMG 1608/1610 15006KT